Time;durP1;ratioP1;P1;durP2;ratioP2;P2;SDS_P1;SDS_P2;PMS_P1;PMS_P2;Temp;Humidity;BMP_temperature;BMP_pressure;BME280_temperature;BME280_humidity;BME280_pressure;Samples;Min_cycle;Max_cycle;Signal;HPM_P1;HPM_P2
2023/10/10 00:01:44;;;;;;;7.85;5.30;;;14.70;99.90;;;;;;5059177;28;20451;-59
2023/10/10 00:04:13;;;;;;;8.15;5.20;;;14.70;99.90;;;;;;5041168;28;20083;-60
2023/10/10 00:06:40;;;;;;;11.50;5.18;;;14.70;99.90;;;;;;5053270;28;20517;-61
2023/10/10 00:09:10;;;;;;;12.25;5.28;;;14.70;99.90;;;;;;5053504;28;20143;-60
2023/10/10 00:11:48;;;;;;;9.48;5.72;;;14.70;99.90;;;;;;5052467;28;20045;-61
2023/10/10 00:14:22;;;;;;;10.20;6.15;;;14.70;99.90;;;;;;5046667;28;20041;-60
2023/10/10 00:16:48;;;;;;;10.63;5.82;;;14.70;99.90;;;;;;5049220;28;20067;-60
2023/10/10 00:19:19;;;;;;;14.07;6.60;;;14.70;99.90;;;;;;5050625;28;20403;-59
2023/10/10 00:21:46;;;;;;;11.30;6.15;;;14.70;99.90;;;;;;5052919;28;20127;-60
2023/10/10 00:24:14;;;;;;;12.48;6.70;;;14.70;99.90;;;;;;5037235;28;20115;-60
2023/10/10 00:26:43;;;;;;;8.30;6.28;;;14.80;99.90;;;;;;5051797;28;20118;-59
2023/10/10 00:29:11;;;;;;;9.38;6.22;;;14.70;99.90;;;;;;5052409;28;20044;-60
2023/10/10 00:31:43;;;;;;;19.25;6.30;;;14.70;99.90;;;;;;5050320;28;20044;-60
2023/10/10 00:34:09;;;;;;;10.73;6.15;;;14.70;99.90;;;;;;5058456;28;20048;-60
2023/10/10 00:36:35;;;;;;;13.88;6.28;;;14.70;99.90;;;;;;5053344;28;20072;-61
2023/10/10 00:41:31;;;;;;;11.38;6.18;;;14.80;99.90;;;;;;5057817;28;20060;-60
2023/10/10 00:43:56;;;;;;;11.85;5.88;;;14.80;99.90;;;;;;5055667;28;20048;-58
2023/10/10 00:46:26;;;;;;;14.15;6.68;;;14.60;99.90;;;;;;5056958;28;20399;-60
2023/10/10 00:48:59;;;;;;;8.73;6.00;;;14.80;99.90;;;;;;5045679;28;21605;-60
2023/10/10 00:51:30;;;;;;;11.73;6.22;;;14.80;99.90;;;;;;5057618;28;20614;-60
2023/10/10 00:54:13;;;;;;;6.88;5.20;;;14.80;99.90;;;;;;5048260;28;20048;-59
2023/10/10 00:56:44;;;;;;;11.02;5.72;;;14.80;99.90;;;;;;5060608;28;20048;-60
2023/10/10 00:59:11;;;;;;;11.25;5.47;;;14.80;99.90;;;;;;5059280;28;20471;-59
2023/10/10 01:01:40;;;;;;;8.45;5.88;;;14.80;99.90;;;;;;5055069;28;20048;-59
2023/10/10 01:04:08;;;;;;;10.20;6.00;;;14.80;99.90;;;;;;5061034;28;20048;-58
2023/10/10 01:06:39;;;;;;;11.15;5.80;;;14.80;99.90;;;;;;5059197;28;20032;-60
2023/10/10 01:09:29;;;;;;;11.07;5.50;;;14.80;99.90;;;;;;5050002;28;20048;-60
2023/10/10 01:11:53;;;;;;;9.75;5.40;;;14.80;99.90;;;;;;5047845;28;20591;-58
2023/10/10 01:14:18;;;;;;;12.27;5.40;;;14.80;99.90;;;;;;5059258;28;20044;-60
2023/10/10 01:16:47;;;;;;;9.35;5.30;;;14.80;99.90;;;;;;5062425;28;20517;-59
2023/10/10 01:19:18;;;;;;;10.20;5.97;;;14.80;99.90;;;;;;5044769;28;20114;-60
2023/10/10 01:21:50;;;;;;;10.43;6.13;;;14.80;99.90;;;;;;5063029;28;20098;-60
2023/10/10 01:24:18;;;;;;;10.65;6.05;;;14.90;99.90;;;;;;5062918;28;20047;-60
2023/10/10 01:26:45;;;;;;;13.18;6.55;;;14.80;99.90;;;;;;5049596;28;20784;-60
2023/10/10 01:29:23;;;;;;;10.45;6.78;;;14.90;99.90;;;;;;5051422;28;20033;-60
2023/10/10 01:31:52;;;;;;;12.13;6.70;;;14.90;99.90;;;;;;5061911;28;20044;-60
2023/10/10 01:34:31;;;;;;;16.63;7.25;;;14.90;99.90;;;;;;5059731;28;20049;-59
2023/10/10 01:37:02;;;;;;;10.82;6.70;;;14.90;99.90;;;;;;5049511;28;20036;-60
2023/10/10 01:39:45;;;;;;;11.37;6.67;;;14.90;99.90;;;;;;5041420;28;20539;-59
2023/10/10 01:42:12;;;;;;;12.13;7.10;;;15.00;99.90;;;;;;5052637;28;20040;-61
2023/10/10 01:44:38;;;;;;;14.85;7.15;;;15.00;99.90;;;;;;5051901;28;20080;-59
2023/10/10 01:47:10;;;;;;;13.57;6.88;;;15.00;99.90;;;;;;5052371;28;20175;-60
2023/10/10 01:49:35;;;;;;;10.20;6.97;;;15.10;99.90;;;;;;5051761;28;20131;-58
2023/10/10 01:52:01;;;;;;;13.35;6.85;;;15.00;99.90;;;;;;5052461;28;20094;-60
2023/10/10 01:54:42;;;;;;;10.70;6.63;;;15.00;99.90;;;;;;5040761;28;20491;-60
2023/10/10 01:57:21;;;;;;;9.32;6.63;;;15.00;99.90;;;;;;5052858;28;20085;-59
2023/10/10 01:59:47;;;;;;;13.25;7.18;;;15.00;99.90;;;;;;5035411;28;20127;-60
2023/10/10 02:02:13;;;;;;;14.07;6.90;;;15.10;99.90;;;;;;5049685;28;20048;-60
2023/10/10 02:04:41;;;;;;;11.00;6.78;;;15.10;99.90;;;;;;5047210;28;20511;-60
2023/10/10 02:07:14;;;;;;;12.50;6.45;;;15.10;99.90;;;;;;5056750;28;20045;-60
2023/10/10 02:09:43;;;;;;;14.02;6.80;;;15.10;99.90;;;;;;5048564;28;20063;-60
2023/10/10 02:12:22;;;;;;;14.88;7.38;;;15.10;99.90;;;;;;5062418;28;20452;-60
2023/10/10 02:14:48;;;;;;;13.30;8.18;;;15.10;99.90;;;;;;5058955;28;20593;-60
2023/10/10 02:17:22;;;;;;;13.70;8.07;;;15.10;99.90;;;;;;5059901;28;20040;-59
2023/10/10 02:19:59;;;;;;;13.65;8.65;;;15.10;99.90;;;;;;5058101;28;20045;-59
2023/10/10 02:25:31;;;;;;;15.88;8.25;;;15.20;99.90;;;;;;5060273;28;20044;-60
2023/10/10 02:28:02;;;;;;;16.85;8.75;;;15.10;99.90;;;;;;5052325;28;20102;-60
2023/10/10 02:30:34;;;;;;;15.48;8.15;;;15.20;99.90;;;;;;5057982;28;20032;-58
2023/10/10 02:35:56;;;;;;;13.00;8.27;;;15.20;99.90;;;;;;5061628;28;20079;-60
2023/10/10 02:38:34;;;;;;;15.15;8.30;;;15.20;99.90;;;;;;5037694;28;20499;-61
2023/10/10 02:42:13;;;;;;;13.40;7.75;;;15.20;99.90;;;;;;5059828;28;20047;-60
2023/10/10 02:46:42;;;;;;;13.18;7.40;;;15.10;99.90;;;;;;5051634;28;20499;-60
2023/10/10 02:49:12;;;;;;;9.65;7.43;;;15.10;99.90;;;;;;5063306;28;20678;-60
2023/10/10 02:51:48;;;;;;;12.80;7.57;;;15.10;99.90;;;;;;5062367;28;20040;-58
2023/10/10 02:56:56;;;;;;;12.60;7.30;;;15.10;99.90;;;;;;5048250;28;20048;-60
2023/10/10 02:59:24;;;;;;;12.93;6.95;;;15.10;99.90;;;;;;5052107;28;20399;-60
2023/10/10 03:02:16;;;;;;;11.07;7.65;;;15.10;99.90;;;;;;5066203;28;20576;-60
2023/10/10 03:07:28;;;;;;;16.38;8.10;;;15.10;99.90;;;;;;5061227;28;20048;-60
2023/10/10 03:12:36;;;;;;;12.57;7.43;;;15.10;99.90;;;;;;5061315;28;20136;-60
2023/10/10 03:26:19;;;;;;;14.55;8.73;;;15.10;99.90;;;;;;5063042;28;20102;-60
2023/10/10 03:28:40;;;;;;;12.05;8.20;;;15.10;99.90;;;;;;5025705;28;20063;-59
2023/10/10 03:31:08;;;;;;;13.30;7.65;;;15.20;99.90;;;;;;5064681;28;24724;-60
2023/10/10 03:33:36;;;;;;;11.90;8.20;;;15.10;99.90;;;;;;5047542;28;20048;-60
2023/10/10 05:25:23;;;;;;;24.02;11.23;;;15.10;99.90;;;;;;5034678;28;20098;-59
2023/10/10 05:27:51;;;;;;;19.90;12.43;;;15.10;99.90;;;;;;5045382;28;20060;-59
2023/10/10 05:30:39;;;;;;;20.52;12.35;;;15.10;99.90;;;;;;5022719;28;20334;-58
2023/10/10 05:33:06;;;;;;;21.00;12.18;;;15.10;99.90;;;;;;5057883;28;20100;-58
2023/10/10 05:35:34;;;;;;;23.10;12.80;;;15.10;99.90;;;;;;5054779;28;20479;-59
2023/10/10 05:38:01;;;;;;;21.50;12.45;;;15.10;99.90;;;;;;5045594;28;20036;-59
2023/10/10 05:40:28;;;;;;;27.75;12.65;;;15.10;99.90;;;;;;5062450;28;20497;-59
2023/10/10 05:42:57;;;;;;;23.85;12.93;;;15.10;99.90;;;;;;5022791;28;20163;-59
2023/10/10 05:45:22;;;;;;;21.13;12.32;;;15.10;99.90;;;;;;5050840;28;20051;-59
2023/10/10 05:47:49;;;;;;;21.90;12.68;;;15.10;99.90;;;;;;5052213;28;20045;-59
2023/10/10 05:50:16;;;;;;;22.50;12.50;;;15.20;99.90;;;;;;5053594;28;20079;-59
2023/10/10 05:52:43;;;;;;;24.10;13.20;;;15.10;99.90;;;;;;5059728;28;20041;-57
2023/10/10 05:55:10;;;;;;;27.90;14.68;;;15.10;99.90;;;;;;5053511;28;20040;-59
2023/10/10 05:57:36;;;;;;;24.48;14.95;;;15.10;99.90;;;;;;5055254;28;20123;-58
2023/10/10 06:00:10;;;;;;;27.65;15.20;;;15.10;99.90;;;;;;5054147;28;20407;-59
2023/10/10 06:02:36;;;;;;;27.63;16.42;;;15.10;99.90;;;;;;5037217;28;20403;-59
2023/10/10 06:05:04;;;;;;;29.58;15.85;;;15.10;99.90;;;;;;5054000;28;20036;-63
2023/10/10 06:07:33;;;;;;;34.92;18.25;;;15.10;99.90;;;;;;5046040;28;20041;-63
2023/10/10 06:09:59;;;;;;;34.63;19.80;;;15.10;99.90;;;;;;5044893;28;20122;-63
2023/10/10 06:12:25;;;;;;;35.47;20.40;;;15.10;99.90;;;;;;5046195;28;20044;-63
2023/10/10 06:14:54;;;;;;;42.83;21.58;;;15.10;99.90;;;;;;5047051;28;20045;-63
2023/10/10 06:17:21;;;;;;;38.67;21.45;;;15.10;99.90;;;;;;5046578;28;20040;-63
2023/10/10 06:19:49;;;;;;;38.95;22.00;;;15.20;99.90;;;;;;5055067;28;20154;-63
2023/10/10 06:22:15;;;;;;;39.30;20.88;;;15.10;99.90;;;;;;5044918;28;20625;-63
2023/10/10 06:24:42;;;;;;;42.30;22.13;;;15.20;99.90;;;;;;5045948;28;20102;-62
2023/10/10 06:27:13;;;;;;;39.05;21.17;;;15.20;99.90;;;;;;5028960;28;20552;-63
2023/10/10 06:29:40;;;;;;;39.05;20.85;;;15.20;99.90;;;;;;5047425;28;20127;-62
2023/10/10 06:32:15;;;;;;;40.65;21.67;;;15.10;99.90;;;;;;5062871;28;20040;-63
2023/10/10 06:34:45;;;;;;;40.50;20.77;;;15.20;99.90;;;;;;5049772;28;20040;-63
2023/10/10 06:37:11;;;;;;;40.58;21.58;;;15.10;99.90;;;;;;5015560;28;20040;-62
2023/10/10 06:40:10;;;;;;;39.40;21.15;;;15.20;99.90;;;;;;5059766;28;20449;-63
2023/10/10 06:42:29;;;;;;;44.63;21.25;;;15.20;99.90;;;;;;5031844;28;20086;-63
2023/10/10 06:44:55;;;;;;;40.05;21.17;;;15.20;99.90;;;;;;5046480;28;20071;-63
2023/10/10 06:47:21;;;;;;;40.33;20.58;;;15.20;99.90;;;;;;4996775;28;20441;-63
2023/10/10 06:49:56;;;;;;;40.92;21.05;;;15.30;99.90;;;;;;5047334;28;20424;-63
2023/10/10 06:52:23;;;;;;;49.33;21.98;;;15.30;99.90;;;;;;5032717;28;20068;-63
2023/10/10 06:54:55;;;;;;;37.97;21.45;;;15.30;99.90;;;;;;5037226;28;20072;-62
2023/10/10 06:57:43;;;;;;;40.35;21.02;;;15.30;99.90;;;;;;5035361;28;20057;-62
2023/10/10 07:00:20;;;;;;;39.55;20.90;;;15.30;99.90;;;;;;5051170;28;20585;-63
2023/10/10 07:02:50;;;;;;;38.00;21.35;;;15.40;99.90;;;;;;5060371;28;20032;-62
2023/10/10 07:05:19;;;;;;;40.25;20.33;;;15.40;99.90;;;;;;5045035;28;20103;-62
2023/10/10 07:07:53;;;;;;;38.50;20.75;;;15.40;99.90;;;;;;5046768;28;20055;-63
2023/10/10 07:10:25;;;;;;;34.60;20.15;;;15.40;99.90;;;;;;5046540;28;20072;-63
2023/10/10 07:12:57;;;;;;;;;;;15.40;99.90;;;;;;5047436;28;20068;-63
2023/10/10 07:15:33;;;;;;;32.90;18.52;;;15.40;99.90;;;;;;5047099;28;19964;-63
2023/10/10 07:18:08;;;;;;;32.13;19.67;;;15.40;99.90;;;;;;5059861;28;20040;-63
2023/10/10 07:23:24;;;;;;;33.63;19.15;;;15.50;99.90;;;;;;5049992;28;20056;-63
2023/10/10 07:25:59;;;;;;;27.75;17.48;;;15.60;99.90;;;;;;5048472;28;20090;-63
2023/10/10 07:28:28;;;;;;;30.33;17.42;;;15.60;99.90;;;;;;5032180;28;20132;-63
2023/10/10 07:30:55;;;;;;;28.63;17.88;;;15.60;99.90;;;;;;5043787;28;20032;-63
2023/10/10 07:33:40;;;;;;;29.90;18.30;;;15.70;99.90;;;;;;5038526;28;20052;-62
2023/10/10 07:36:06;;;;;;;29.33;18.13;;;15.70;99.90;;;;;;5037463;28;20082;-63
2023/10/10 07:38:35;;;;;;;30.20;17.58;;;15.80;99.90;;;;;;5035620;28;20565;-63
2023/10/10 07:41:04;;;;;;;32.33;17.55;;;15.80;99.90;;;;;;5030238;28;20067;-63
2023/10/10 07:43:34;;;;;;;30.42;17.10;;;15.80;99.90;;;;;;5005425;28;20033;-61
2023/10/10 07:46:22;;;;;;;31.13;17.48;;;15.90;99.90;;;;;;5042561;28;20086;-62
2023/10/10 07:48:53;;;;;;;28.63;17.02;;;15.90;99.90;;;;;;5039647;28;20082;-63
2023/10/10 07:51:28;;;;;;;30.67;18.13;;;16.00;99.90;;;;;;5027999;28;20135;-63
2023/10/10 07:54:12;;;;;;;34.03;19.58;;;16.10;99.90;;;;;;5060367;28;20029;-63
2023/10/10 07:57:03;;;;;;;35.08;20.52;;;16.10;99.90;;;;;;5043604;28;20344;-63
2023/10/10 07:59:27;;;;;;;38.63;22.23;;;16.10;99.90;;;;;;5045383;28;20523;-63
2023/10/10 08:01:56;;;;;;;42.65;24.67;;;16.20;99.90;;;;;;5020252;28;20127;-63
2023/10/10 08:04:22;;;;;;;40.97;24.90;;;16.20;99.90;;;;;;5048163;28;20636;-62
2023/10/10 08:06:48;;;;;;;50.17;27.42;;;16.20;99.90;;;;;;5049950;28;20052;-63
2023/10/10 08:11:40;;;;;;;52.50;26.77;;;16.30;99.90;;;;;;5058215;28;20301;-62
2023/10/10 08:14:07;;;;;;;51.70;26.83;;;16.40;99.90;;;;;;5056917;28;20044;-62
2023/10/10 08:16:34;;;;;;;57.97;28.33;;;16.40;99.90;;;;;;5035452;28;20055;-63
2023/10/10 08:19:10;;;;;;;51.38;27.80;;;16.50;99.90;;;;;;5037217;28;20616;-63
2023/10/10 08:21:38;;;;;;;51.17;28.77;;;16.50;99.90;;;;;;5017635;28;20098;-63
2023/10/10 08:24:06;;;;;;;50.65;28.02;;;16.60;99.90;;;;;;5043409;28;20169;-63
2023/10/10 08:26:39;;;;;;;45.75;26.85;;;16.60;99.90;;;;;;5028436;28;20057;-63
2023/10/10 08:29:09;;;;;;;61.88;30.45;;;16.70;99.90;;;;;;5015244;28;20051;-63
2023/10/10 08:31:39;;;;;;;46.80;29.20;;;16.70;99.90;;;;;;5040973;28;20108;-63
2023/10/10 08:34:08;;;;;;;48.50;29.13;;;16.80;99.90;;;;;;5043358;28;20049;-63
2023/10/10 08:36:35;;;;;;;45.97;27.33;;;16.80;99.90;;;;;;5027385;28;20083;-63
2023/10/10 08:41:44;;;;;;;46.30;26.95;;;16.90;99.90;;;;;;5042277;28;20090;-63
2023/10/10 08:44:14;;;;;;;45.65;27.45;;;16.90;99.90;;;;;;5029832;28;20045;-63
2023/10/10 08:46:46;;;;;;;45.90;27.08;;;17.00;99.90;;;;;;5026259;28;20471;-63
2023/10/10 08:49:15;;;;;;;43.78;26.33;;;17.10;99.90;;;;;;5038174;28;20547;-63
2023/10/10 08:51:42;;;;;;;47.20;25.88;;;17.10;99.90;;;;;;5025618;28;20041;-63
2023/10/10 08:54:12;;;;;;;39.70;26.00;;;17.20;99.90;;;;;;5025239;28;20056;-63
2023/10/10 08:57:03;;;;;;;40.55;25.08;;;17.30;99.90;;;;;;5033819;28;20036;-63
2023/10/10 08:59:32;;;;;;;43.08;25.55;;;17.40;99.90;;;;;;5027150;28;20047;-63
2023/10/10 09:02:07;;;;;;;40.90;26.08;;;17.50;99.90;;;;;;5027874;28;20425;-62
2023/10/10 09:04:33;;;;;;;47.13;27.33;;;17.60;99.90;;;;;;5026394;28;20041;-63
2023/10/10 09:07:08;;;;;;;44.00;25.88;;;17.70;99.90;;;;;;5036631;28;20043;-63
2023/10/10 09:09:40;;;;;;;43.28;26.20;;;17.80;99.90;;;;;;5023935;28;20119;-63
2023/10/10 09:12:14;;;;;;;47.35;27.85;;;17.90;99.90;;;;;;5025006;28;20130;-63
2023/10/10 09:14:49;;;;;;;46.63;29.20;;;18.00;99.90;;;;;;5022694;28;20041;-63
2023/10/10 09:17:28;;;;;;;46.60;29.50;;;18.10;99.90;;;;;;5018662;28;20037;-63
2023/10/10 09:19:57;;;;;;;48.40;30.02;;;18.10;99.90;;;;;;5030779;28;20091;-63
2023/10/10 09:22:30;;;;;;;55.25;30.58;;;18.10;99.90;;;;;;5018606;28;20048;-63
2023/10/10 09:24:56;;;;;;;47.58;30.60;;;18.10;99.90;;;;;;5029044;28;20053;-63
2023/10/10 09:27:23;;;;;;;54.17;31.77;;;18.20;99.90;;;;;;5019746;28;20403;-63
2023/10/10 09:29:54;;;;;;;50.90;31.90;;;18.20;99.90;;;;;;5037339;28;20608;-63
2023/10/10 09:32:42;;;;;;;56.25;33.30;;;18.30;99.90;;;;;;5036488;28;21454;-63
2023/10/10 09:35:08;;;;;;;62.15;32.20;;;18.30;99.90;;;;;;5047134;28;20090;-63
2023/10/10 09:37:38;;;;;;;51.97;31.20;;;18.50;99.90;;;;;;5037196;28;20051;-63
2023/10/10 09:40:15;;;;;;;47.78;30.40;;;18.50;99.90;;;;;;5052928;28;20040;-62
2023/10/10 09:43:03;;;;;;;50.42;30.98;;;18.60;99.90;;;;;;5052342;28;20441;-63
2023/10/10 09:45:55;;;;;;;58.55;32.10;;;18.60;99.90;;;;;;5064054;28;20102;-63
2023/10/10 09:52:47;;;;;;;53.90;31.63;;;18.70;99.90;;;;;;5034215;28;20044;-63
2023/10/10 09:54:18;;;;;;;50.92;30.35;;;18.90;99.90;;;;;;5063353;28;20097;-63
2023/10/10 09:56:50;;;;;;;50.67;31.55;;;18.90;99.90;;;;;;5044675;28;20529;-63
2023/10/10 09:59:20;;;;;;;49.22;30.08;;;18.90;99.90;;;;;;5052232;28;20491;-63
2023/10/10 10:01:59;;;;;;;52.38;31.05;;;18.90;99.90;;;;;;5049275;28;20819;-63
2023/10/10 10:04:28;;;;;;;50.60;30.27;;;18.90;99.90;;;;;;5051733;28;20119;-63
2023/10/10 10:07:35;;;;;;;47.45;28.85;;;19.00;99.90;;;;;;5058172;28;20045;-63
2023/10/10 10:10:22;;;;;;;50.63;29.15;;;19.00;99.90;;;;;;5054330;28;20373;-63
2023/10/10 10:12:59;;;;;;;45.13;28.65;;;19.10;99.90;;;;;;5048478;28;20395;-63
2023/10/10 10:15:50;;;;;;;47.83;29.08;;;19.20;99.90;;;;;;5067838;28;20634;-63
2023/10/10 10:18:28;;;;;;;45.95;28.15;;;19.30;99.90;;;;;;5036065;28;20149;-63
2023/10/10 10:23:45;;;;;;;54.60;28.88;;;19.50;99.90;;;;;;5054674;28;20045;-63
2023/10/10 10:26:42;;;;;;;44.50;28.95;;;19.60;99.90;;;;;;5064486;28;20049;-63
2023/10/10 10:29:16;;;;;;;48.85;28.98;;;19.70;99.90;;;;;;5053301;28;20091;-63
2023/10/10 10:31:57;;;;;;;49.08;28.45;;;19.80;99.90;;;;;;5061213;28;20028;-62
2023/10/10 10:34:32;;;;;;;49.90;29.27;;;19.90;99.90;;;;;;5049899;28;20049;-63
2023/10/10 10:37:07;;;;;;;46.70;27.42;;;20.00;99.90;;;;;;5048175;28;20052;-63
2023/10/10 10:42:27;;;;;;;45.15;27.13;;;20.30;99.90;;;;;;5065421;28;20099;-63
2023/10/10 10:47:45;;;;;;;47.25;27.73;;;20.50;99.90;;;;;;5050458;28;20036;-63
2023/10/10 10:50:29;;;;;;;45.45;27.42;;;20.70;99.90;;;;;;5030031;28;20056;-63
2023/10/10 10:53:04;;;;;;;47.42;27.77;;;20.70;99.90;;;;;;5045033;28;20032;-63
2023/10/10 10:55:30;;;;;;;45.05;28.02;;;20.80;99.90;;;;;;5030120;28;20063;-63
2023/10/10 10:58:07;;;;;;;45.65;27.02;;;20.90;99.90;;;;;;5039387;28;20041;-63
2023/10/10 11:03:32;;;;;;;42.90;26.02;;;21.20;99.90;;;;;;5054718;28;20083;-63
2023/10/10 11:06:09;;;;;;;43.90;25.63;;;21.30;99.90;;;;;;5035198;28;20157;-63
2023/10/10 11:16:57;;;;;;;41.63;24.05;;;21.30;99.90;;;;;;5050707;28;20474;-63
2023/10/10 11:22:00;;;;;;;42.10;24.35;;;21.10;99.90;;;;;;5046722;28;20549;-63
2023/10/10 11:24:29;;;;;;;38.35;22.75;;;21.00;99.90;;;;;;5050062;28;20048;-63
2023/10/10 11:29:44;;;;;;;38.28;22.75;;;21.20;99.90;;;;;;5031011;28;20037;-63
2023/10/10 11:32:13;;;;;;;35.00;22.42;;;21.30;99.90;;;;;;5047589;28;20052;-63
2023/10/10 11:34:43;;;;;;;36.05;21.88;;;21.40;99.90;;;;;;5004401;28;20080;-63
2023/10/10 11:37:23;;;;;;;38.50;22.55;;;21.60;99.90;;;;;;5008041;28;20116;-63
2023/10/10 11:42:55;;;;;;;35.95;21.35;;;22.00;99.90;;;;;;5032378;28;20056;-63
2023/10/10 11:45:26;;;;;;;36.70;22.33;;;22.30;99.90;;;;;;5015424;28;20539;-63
2023/10/10 11:48:05;;;;;;;36.63;21.55;;;22.30;99.90;;;;;;5025576;28;20178;-63
2023/10/10 11:51:00;;;;;;;36.40;21.45;;;22.40;99.90;;;;;;5035407;28;20055;-63
2023/10/10 11:53:36;;;;;;;38.40;22.73;;;22.50;99.90;;;;;;5017905;28;20425;-63
2023/10/10 11:56:04;;;;;;;38.15;22.27;;;22.50;99.90;;;;;;5012522;28;20048;-63
2023/10/10 11:58:36;;;;;;;39.10;21.67;;;22.40;99.90;;;;;;5036071;28;20053;-63
2023/10/10 12:01:17;;;;;;;35.83;22.13;;;22.40;99.90;;;;;;5021521;28;20051;-63
2023/10/10 12:03:43;;;;;;;36.75;21.27;;;22.30;99.90;;;;;;5024928;28;20494;-63
2023/10/10 12:06:19;;;;;;;35.83;20.95;;;22.30;99.90;;;;;;5010243;28;20045;-63
2023/10/10 12:08:50;;;;;;;32.65;20.98;;;22.40;99.90;;;;;;5047038;28;20080;-62
2023/10/10 12:11:22;;;;;;;33.08;21.15;;;22.40;99.90;;;;;;5041615;28;20041;-63
2023/10/10 12:13:50;;;;;;;34.83;20.95;;;22.60;99.90;;;;;;5023189;28;20080;-62
2023/10/10 12:16:17;;;;;;;35.95;20.77;;;22.80;99.90;;;;;;5023109;28;20045;-63
2023/10/10 12:18:45;;;;;;;32.38;21.13;;;22.80;99.90;;;;;;5022854;28;20392;-63
2023/10/10 12:21:14;;;;;;;33.22;21.27;;;22.70;99.90;;;;;;5023850;28;20044;-63
2023/10/10 12:23:43;;;;;;;31.60;20.08;;;22.70;99.90;;;;;;5026509;28;20098;-63
2023/10/10 12:26:18;;;;;;;34.22;21.20;;;22.60;99.90;;;;;;5014970;28;20593;-63
2023/10/10 12:28:48;;;;;;;31.40;21.27;;;22.60;99.90;;;;;;5032483;28;20049;-62
2023/10/10 12:31:17;;;;;;;33.58;20.55;;;22.60;99.90;;;;;;5038030;28;20098;-62
2023/10/10 12:33:48;;;;;;;37.55;21.05;;;22.70;99.90;;;;;;5033911;28;20480;-62
2023/10/10 12:36:15;;;;;;;34.42;20.75;;;22.90;99.90;;;;;;5037359;28;20040;-62
2023/10/10 12:38:41;;;;;;;32.13;20.25;;;23.00;99.90;;;;;;5037596;28;20045;-62
2023/10/10 12:41:13;;;;;;;36.55;21.15;;;23.10;99.90;;;;;;5042600;28;20373;-62
2023/10/10 12:43:39;;;;;;;;;;;23.30;99.90;;;;;;5041101;28;20044;-62
2023/10/10 12:46:07;;;;;;;32.40;20.88;;;23.30;99.90;;;;;;5036973;28;19921;-62
2023/10/10 12:48:39;;;;;;;30.23;19.13;;;23.30;99.90;;;;;;5032286;28;20231;-62
2023/10/10 12:51:09;;;;;;;26.40;17.38;;;23.20;99.90;;;;;;5030182;28;20124;-62
2023/10/10 12:53:39;;;;;;;26.50;17.17;;;23.10;99.90;;;;;;5036636;28;20041;-62
2023/10/10 12:56:16;;;;;;;26.00;16.30;;;23.00;99.90;;;;;;5041487;28;20460;-62
2023/10/10 12:58:43;;;;;;;27.05;17.63;;;22.90;99.90;;;;;;5041210;28;20049;-62
2023/10/10 13:01:22;;;;;;;26.95;17.13;;;22.90;99.90;;;;;;5033396;28;20053;-63
2023/10/10 13:03:48;;;;;;;29.05;17.33;;;22.80;99.90;;;;;;5021905;28;20047;-62
2023/10/10 13:06:15;;;;;;;28.33;17.25;;;22.80;99.90;;;;;;5041699;28;20045;-63
2023/10/10 13:08:48;;;;;;;31.30;17.67;;;22.70;99.90;;;;;;5041130;28;20033;-63
2023/10/10 13:11:15;;;;;;;28.80;17.40;;;22.60;99.90;;;;;;5036919;28;20064;-62
2023/10/10 13:13:56;;;;;;;32.50;18.73;;;22.50;99.90;;;;;;5044802;28;20493;-63
2023/10/10 13:16:52;;;;;;;24.50;16.20;;;22.50;99.90;;;;;;5042115;28;20098;-59
2023/10/10 13:19:14;;;;;;;28.10;16.75;;;22.60;99.90;;;;;;5039821;28;20040;-60
2023/10/10 13:21:47;;;;;;;31.65;16.90;;;22.80;99.90;;;;;;5042219;28;20037;-61
2023/10/10 13:24:18;;;;;;;26.63;16.40;;;22.90;99.90;;;;;;5040519;28;20068;-60
2023/10/10 13:26:51;;;;;;;31.63;16.77;;;23.00;99.90;;;;;;5042116;28;20064;-60
2023/10/10 13:29:17;;;;;;;24.95;16.98;;;22.90;99.90;;;;;;5023991;28;20049;-59
2023/10/10 13:31:46;;;;;;;30.20;16.27;;;22.80;99.90;;;;;;5021170;28;20098;-60
2023/10/10 13:34:13;;;;;;;26.75;16.45;;;22.70;99.90;;;;;;5033215;28;20056;-60
2023/10/10 13:36:39;;;;;;;25.63;15.85;;;22.50;99.90;;;;;;5031555;28;20062;-60
2023/10/10 13:39:14;;;;;;;25.23;16.23;;;22.30;99.90;;;;;;5035093;28;20048;-60
2023/10/10 13:41:41;;;;;;;31.35;17.65;;;22.20;99.90;;;;;;5032215;28;20753;-59
2023/10/10 13:44:07;;;;;;;34.13;18.63;;;22.10;99.90;;;;;;5026856;28;20245;-59
2023/10/10 13:46:34;;;;;;;28.45;17.45;;;21.90;99.90;;;;;;5029508;28;20059;-60
2023/10/10 13:49:03;;;;;;;26.48;17.38;;;21.80;99.90;;;;;;5032547;28;20114;-60
2023/10/10 13:51:29;;;;;;;28.55;17.33;;;21.70;99.90;;;;;;5045537;28;20118;-60
2023/10/10 13:53:58;;;;;;;30.25;17.95;;;21.60;99.90;;;;;;5033310;28;20442;-60
2023/10/10 13:56:23;;;;;;;29.50;17.73;;;21.60;99.90;;;;;;5032419;28;20052;-60
2023/10/10 13:58:52;;;;;;;29.95;17.83;;;21.60;99.90;;;;;;5027043;28;20036;-60
2023/10/10 14:01:30;;;;;;;26.25;17.13;;;21.60;99.90;;;;;;5030677;28;20048;-59
2023/10/10 14:04:15;;;;;;;30.95;16.58;;;21.60;99.90;;;;;;5004443;28;20055;-60
2023/10/10 14:06:48;;;;;;;32.53;17.13;;;21.50;99.90;;;;;;5033000;28;20037;-60
2023/10/10 14:09:31;;;;;;;29.60;17.00;;;21.50;99.90;;;;;;5035575;28;20535;-59
2023/10/10 14:12:01;;;;;;;36.08;18.45;;;21.40;99.90;;;;;;5032494;28;21504;-60
2023/10/10 14:14:27;;;;;;;37.05;21.00;;;21.30;99.90;;;;;;5033226;28;20098;-60
2023/10/10 14:16:53;;;;;;;34.97;21.52;;;21.20;99.90;;;;;;5032403;28;20057;-60
2023/10/10 14:19:23;;;;;;;32.45;21.50;;;21.10;99.90;;;;;;5051553;28;20083;-61
2023/10/10 14:21:52;;;;;;;37.40;21.35;;;21.00;99.90;;;;;;5030153;28;20147;-60
2023/10/10 14:24:19;;;;;;;32.42;20.30;;;21.00;99.90;;;;;;5035072;28;20051;-59
2023/10/10 14:26:45;;;;;;;32.92;19.17;;;20.90;99.90;;;;;;5034540;28;20060;-60
2023/10/10 14:29:14;;;;;;;33.42;19.80;;;20.90;99.90;;;;;;5034321;28;20059;-59
2023/10/10 14:31:44;;;;;;;32.65;19.10;;;20.90;99.90;;;;;;5032263;28;20064;-60
2023/10/10 14:34:19;;;;;;;28.13;18.08;;;20.90;99.90;;;;;;5031793;28;20407;-59
2023/10/10 14:36:51;;;;;;;31.30;19.42;;;20.90;99.90;;;;;;5046976;28;20546;-60
2023/10/10 14:39:31;;;;;;;33.83;18.98;;;20.80;99.90;;;;;;5033857;28;20680;-58
2023/10/10 14:41:58;;;;;;;34.70;20.50;;;20.90;99.90;;;;;;5033733;28;20487;-59
2023/10/10 14:44:28;;;;;;;35.50;20.15;;;20.80;99.90;;;;;;5027156;28;20071;-60
2023/10/10 14:46:55;;;;;;;32.15;21.42;;;20.80;99.90;;;;;;5031146;28;20048;-60
2023/10/10 14:49:29;;;;;;;34.65;22.25;;;20.80;99.90;;;;;;5033774;28;20087;-60
2023/10/10 14:51:56;;;;;;;40.33;23.05;;;20.80;99.90;;;;;;5028552;28;20045;-61
2023/10/10 14:54:23;;;;;;;36.97;22.42;;;20.80;99.90;;;;;;5032776;28;20046;-62
2023/10/10 14:56:52;;;;;;;38.30;22.45;;;20.80;99.90;;;;;;5032660;28;20499;-63
2023/10/10 14:59:20;;;;;;;31.45;20.90;;;20.80;99.90;;;;;;5047403;28;21249;-62
2023/10/10 15:01:49;;;;;;;35.85;22.23;;;20.80;99.90;;;;;;5043912;28;20128;-62
2023/10/10 15:04:19;;;;;;;37.30;21.70;;;20.80;99.90;;;;;;5003587;28;20049;-63
2023/10/10 15:06:47;;;;;;;31.48;21.33;;;20.80;99.90;;;;;;5028718;28;20047;-62
2023/10/10 15:09:19;;;;;;;46.40;21.60;;;20.90;99.90;;;;;;5030512;28;20056;-63
2023/10/10 15:11:46;;;;;;;35.60;21.05;;;20.80;99.90;;;;;;5029863;28;20048;-62
2023/10/10 15:14:12;;;;;;;38.10;21.63;;;20.90;99.90;;;;;;5038978;28;20159;-62
2023/10/10 15:16:39;;;;;;;33.03;21.10;;;20.90;99.90;;;;;;5027115;28;20052;-61
2023/10/10 15:19:08;;;;;;;32.30;21.70;;;20.80;99.90;;;;;;5030994;28;20124;-60
2023/10/10 15:21:38;;;;;;;33.53;21.17;;;20.80;99.90;;;;;;5030061;28;20051;-60
2023/10/10 15:24:11;;;;;;;36.00;20.42;;;20.80;99.90;;;;;;5029355;28;20045;-61
2023/10/10 15:26:47;;;;;;;38.45;21.15;;;20.80;99.90;;;;;;5010640;28;20060;-60
2023/10/10 15:29:15;;;;;;;32.15;19.73;;;20.70;99.90;;;;;;5026937;28;20033;-61
2023/10/10 15:31:41;;;;;;;28.98;19.00;;;20.70;99.90;;;;;;5029411;28;20040;-59
2023/10/10 15:34:11;;;;;;;31.55;19.85;;;20.70;99.90;;;;;;5026401;28;20463;-61
2023/10/10 15:36:37;;;;;;;31.23;19.05;;;20.60;99.90;;;;;;5036366;28;20064;-61
2023/10/10 15:39:09;;;;;;;33.53;19.45;;;20.60;99.90;;;;;;5037020;28;20036;-60
2023/10/10 15:41:37;;;;;;;31.20;18.60;;;20.60;99.90;;;;;;5037729;28;20087;-60
2023/10/10 15:44:03;;;;;;;29.48;18.67;;;20.50;99.90;;;;;;5033490;28;20140;-60
2023/10/10 15:46:35;;;;;;;28.48;19.13;;;20.50;99.90;;;;;;5039205;28;20430;-60
2023/10/10 15:49:03;;;;;;;30.27;19.60;;;20.40;99.90;;;;;;5040383;28;20047;-60
2023/10/10 15:51:30;;;;;;;36.80;19.35;;;20.40;99.90;;;;;;5039790;28;20488;-60